createdAt,value
2023-05-02T00:00:58.109Z,1009.59
2023-05-02T00:01:58.169Z,1009.60
2023-05-02T00:02:58.532Z,1009.56
2023-05-02T00:03:58.194Z,1009.52
2023-05-02T00:04:58.078Z,1009.52
2023-05-02T00:05:58.157Z,1009.54
2023-05-02T00:06:58.172Z,1009.55
2023-05-02T00:07:58.057Z,1009.55
2023-05-02T00:08:58.022Z,1009.57
2023-05-02T00:09:58.559Z,1009.54
2023-05-02T00:10:58.002Z,1009.54
2023-05-02T00:11:58.014Z,1009.59
2023-05-02T00:12:58.040Z,1009.59
2023-05-02T00:13:57.973Z,1009.63
2023-05-02T00:14:57.959Z,1009.59
2023-05-02T00:15:57.973Z,1009.60
2023-05-02T00:16:58.073Z,1009.59
2023-05-02T00:17:58.090Z,1009.60
2023-05-02T00:18:57.985Z,1009.55
2023-05-02T00:19:58.253Z,1009.51
2023-05-02T00:20:57.950Z,1009.50
2023-05-02T00:21:57.901Z,1009.48
2023-05-02T00:22:57.977Z,1009.47
2023-05-02T00:23:57.896Z,1009.47
2023-05-02T00:24:57.850Z,1009.54
2023-05-02T00:25:57.846Z,1009.57
2023-05-02T00:26:57.847Z,1009.57
2023-05-02T00:27:57.848Z,1009.51
2023-05-02T00:28:57.829Z,1009.50
2023-05-02T00:29:58.418Z,1009.51
2023-05-02T00:30:57.805Z,1009.54
2023-05-02T00:31:57.778Z,1009.52
2023-05-02T00:32:57.818Z,1009.50
2023-05-02T00:33:57.786Z,1009.53
2023-05-02T00:34:57.745Z,1009.54
2023-05-02T00:35:57.741Z,1009.51
2023-05-02T00:36:57.730Z,1009.45
2023-05-02T00:37:57.734Z,1009.48
2023-05-02T00:38:57.732Z,1009.49
2023-05-02T00:39:57.877Z,1009.56
2023-05-02T00:40:57.689Z,1009.48
2023-05-02T00:41:57.678Z,1009.49
2023-05-02T00:42:57.656Z,1009.46
2023-05-02T00:43:57.694Z,1009.54
2023-05-02T00:44:57.644Z,1009.47
2023-05-02T00:45:57.652Z,1009.55
2023-05-02T00:46:57.630Z,1009.53
2023-05-02T00:47:57.634Z,1009.54
2023-05-02T00:48:57.643Z,1009.53
2023-05-02T00:49:57.683Z,1009.51
2023-05-02T00:50:57.575Z,1009.48
2023-05-02T00:51:57.626Z,1009.51
2023-05-02T00:52:57.553Z,1009.43
2023-05-02T00:53:57.581Z,1009.54
2023-05-02T00:54:57.528Z,1009.47
2023-05-02T00:55:57.534Z,1009.50
2023-05-02T00:56:57.511Z,1009.55
2023-05-02T00:57:57.529Z,1009.51
2023-05-02T00:58:57.489Z,1009.48
2023-05-02T00:59:57.797Z,1009.54
2023-05-02T01:00:57.475Z,1009.51
2023-05-02T01:01:57.555Z,1009.54
2023-05-02T01:02:57.619Z,1009.53
2023-05-02T01:03:57.528Z,1009.44
2023-05-02T01:04:57.423Z,1009.48
2023-05-02T01:05:57.420Z,1009.45
2023-05-02T01:06:57.427Z,1009.55
2023-05-02T01:07:57.394Z,1009.53
2023-05-02T01:08:57.398Z,1009.53
2023-05-02T01:09:57.710Z,1009.49
2023-05-02T01:10:57.365Z,1009.45
2023-05-02T01:11:57.349Z,1009.50
2023-05-02T01:12:57.332Z,1009.45
2023-05-02T01:13:57.348Z,1009.50
2023-05-02T01:14:57.310Z,1009.50
2023-05-02T01:15:57.438Z,1009.52
2023-05-02T01:16:57.292Z,1009.45
2023-05-02T01:17:57.369Z,1009.46
2023-05-02T01:18:57.293Z,1009.49
2023-05-02T01:19:57.380Z,1009.56
2023-05-02T01:20:57.261Z,1009.58
2023-05-02T01:21:57.244Z,1009.53
2023-05-02T01:22:57.254Z,1009.54
2023-05-02T01:23:57.214Z,1009.51
2023-05-02T01:24:57.209Z,1009.57
2023-05-02T01:25:57.198Z,1009.53
2023-05-02T01:26:57.186Z,1009.52
2023-05-02T01:27:57.193Z,1009.50
2023-05-02T01:28:57.161Z,1009.48
2023-05-02T01:29:57.233Z,1009.51
2023-05-02T01:30:57.150Z,1009.60
2023-05-02T01:31:57.439Z,1009.63
2023-05-02T01:32:57.167Z,1009.60
2023-05-02T01:33:57.112Z,1009.57
2023-05-02T01:34:57.088Z,1009.59
2023-05-02T01:35:57.088Z,1009.62
2023-05-02T01:36:57.072Z,1009.57
2023-05-02T01:37:57.100Z,1009.56
2023-05-02T01:38:57.079Z,1009.66
2023-05-02T01:39:57.229Z,1009.62
2023-05-02T01:40:57.042Z,1009.58
2023-05-02T01:41:57.114Z,1009.56
2023-05-02T01:42:57.050Z,1009.70
2023-05-02T01:43:57.024Z,1009.66
2023-05-02T01:44:56.990Z,1009.65
2023-05-02T01:45:56.981Z,1009.69
2023-05-02T01:46:56.994Z,1009.71
2023-05-02T01:47:57.061Z,1009.75
2023-05-02T01:48:56.973Z,1009.75
2023-05-02T01:49:57.006Z,1009.75
2023-05-02T01:50:56.926Z,1009.72
2023-05-02T01:51:56.988Z,1009.74
2023-05-02T01:52:56.903Z,1009.74
2023-05-02T01:53:56.939Z,1009.76
2023-05-02T01:54:56.882Z,1009.77
2023-05-02T01:55:56.902Z,1009.75
2023-05-02T01:56:56.857Z,1009.79
2023-05-02T01:57:56.856Z,1009.75
2023-05-02T01:58:56.845Z,1009.83
2023-05-02T01:59:56.899Z,1009.76
2023-05-02T02:00:56.851Z,1009.75
2023-05-02T02:01:56.830Z,1009.85
2023-05-02T02:02:56.821Z,1009.85
2023-05-02T02:03:56.819Z,1009.82
2023-05-02T02:04:56.780Z,1009.89
2023-05-02T02:05:56.765Z,1009.91
2023-05-02T02:06:56.807Z,1009.91
2023-05-02T02:07:56.744Z,1009.89
2023-05-02T02:08:56.748Z,1009.89
2023-05-02T02:09:56.719Z,1009.92
2023-05-02T02:10:56.705Z,1009.95
2023-05-02T02:11:56.696Z,1009.98
2023-05-02T02:12:56.688Z,1009.95
2023-05-02T02:13:56.696Z,1010.00
2023-05-02T02:14:56.662Z,1009.99
2023-05-02T02:15:56.656Z,1009.98
2023-05-02T02:16:56.656Z,1009.96
2023-05-02T02:17:56.652Z,1010.05
2023-05-02T02:18:56.631Z,1010.03
2023-05-02T02:19:56.648Z,1009.97
2023-05-02T02:20:56.597Z,1010.01
2023-05-02T02:21:56.586Z,1010.02
2023-05-02T02:22:56.608Z,1010.02
2023-05-02T02:23:56.613Z,1010.00
2023-05-02T02:24:56.559Z,1010.04
2023-05-02T02:25:56.539Z,1010.04
2023-05-02T02:26:56.537Z,1010.07
2023-05-02T02:27:56.519Z,1010.14
2023-05-02T02:28:56.529Z,1010.16
2023-05-02T02:29:56.534Z,1010.17
2023-05-02T02:30:56.515Z,1010.21
2023-05-02T02:31:56.473Z,1010.18
2023-05-02T02:32:56.509Z,1010.04
2023-05-02T02:33:56.454Z,1010.12
2023-05-02T02:34:56.459Z,1010.12
2023-05-02T02:35:56.455Z,1010.12
2023-05-02T02:36:56.424Z,1010.07
2023-05-02T02:37:56.412Z,1010.12
2023-05-02T02:38:56.430Z,1010.15
2023-05-02T02:39:56.414Z,1010.20
2023-05-02T02:40:56.407Z,1010.16
2023-05-02T02:41:56.366Z,1010.20
2023-05-02T02:42:56.365Z,1010.26
2023-05-02T02:43:56.377Z,1010.31
2023-05-02T02:44:56.357Z,1010.28
2023-05-02T02:45:56.410Z,1010.28
2023-05-02T02:46:56.314Z,1010.26
2023-05-02T02:47:56.366Z,1010.31
2023-05-02T02:48:56.302Z,1010.30
2023-05-02T02:49:56.303Z,1010.33
2023-05-02T02:50:56.319Z,1010.35
2023-05-02T02:51:56.275Z,1010.39
2023-05-02T02:52:56.264Z,1010.39
2023-05-02T02:53:56.237Z,1010.41
2023-05-02T02:54:56.224Z,1010.37
2023-05-02T02:55:56.229Z,1010.39
2023-05-02T02:56:56.205Z,1010.46
2023-05-02T02:57:56.212Z,1010.45
2023-05-02T02:58:56.190Z,1010.48
2023-05-02T02:59:56.166Z,1010.46
2023-05-02T03:00:56.189Z,1010.47
2023-05-02T03:01:56.226Z,1010.56
2023-05-02T03:02:56.185Z,1010.52
2023-05-02T03:03:56.178Z,1010.57
2023-05-02T03:04:56.136Z,1010.57
2023-05-02T03:05:56.096Z,1010.66
2023-05-02T03:06:56.234Z,1010.65
2023-05-02T03:07:56.104Z,1010.65
2023-05-02T03:08:56.072Z,1010.66
2023-05-02T03:09:56.060Z,1010.74
2023-05-02T03:10:56.061Z,1010.66
2023-05-02T03:11:56.066Z,1010.70
2023-05-02T03:12:56.193Z,1010.68
2023-05-02T03:13:56.028Z,1010.66
2023-05-02T03:14:56.015Z,1010.71
2023-05-02T03:15:56.040Z,1010.70
2023-05-02T03:16:55.987Z,1010.76
2023-05-02T03:17:56.080Z,1010.77
2023-05-02T03:18:55.962Z,1010.84
2023-05-02T03:19:55.963Z,1010.82
2023-05-02T03:20:55.971Z,1010.79
2023-05-02T03:21:55.942Z,1010.87
2023-05-02T03:22:55.948Z,1010.81
2023-05-02T03:23:55.934Z,1010.82
2023-05-02T03:24:55.919Z,1010.88
2023-05-02T03:25:55.899Z,1010.88
2023-05-02T03:26:55.889Z,1010.93
2023-05-02T03:27:55.883Z,1010.93
2023-05-02T03:28:55.873Z,1010.94
2023-05-02T03:29:55.849Z,1010.94
2023-05-02T03:30:55.860Z,1011.03
2023-05-02T03:31:55.928Z,1011.01
2023-05-02T03:32:55.922Z,1010.98
2023-05-02T03:33:55.808Z,1011.05
2023-05-02T03:34:55.797Z,1011.01
2023-05-02T03:35:55.799Z,1011.02
2023-05-02T03:36:55.804Z,1010.99
2023-05-02T03:37:55.771Z,1011.03
2023-05-02T03:38:55.763Z,1011.10
2023-05-02T03:39:55.761Z,1011.08
2023-05-02T03:40:55.735Z,1011.06
2023-05-02T03:41:55.748Z,1011.08
2023-05-02T03:42:55.712Z,1011.10
2023-05-02T03:43:55.690Z,1011.14
2023-05-02T03:44:55.680Z,1011.15
2023-05-02T03:45:55.671Z,1011.21
2023-05-02T03:46:55.723Z,1011.17
2023-05-02T03:47:55.757Z,1011.22
2023-05-02T03:48:55.692Z,1011.24
2023-05-02T03:49:55.626Z,1011.22
2023-05-02T03:50:55.621Z,1011.29
2023-05-02T03:51:55.605Z,1011.35
2023-05-02T03:52:55.640Z,1011.34
2023-05-02T03:53:55.607Z,1011.34
2023-05-02T03:54:55.577Z,1011.31
2023-05-02T03:55:55.660Z,1011.31
2023-05-02T03:56:55.552Z,1011.35
2023-05-02T03:57:55.557Z,1011.32
2023-05-02T03:58:55.579Z,1011.36
2023-05-02T03:59:55.524Z,1011.33
2023-05-02T04:00:55.560Z,1011.37
2023-05-02T04:01:55.579Z,1011.37
2023-05-02T04:02:55.550Z,1011.40
2023-05-02T04:03:55.522Z,1011.40
2023-05-02T04:04:55.465Z,1011.36
2023-05-02T04:05:55.448Z,1011.36
2023-05-02T04:06:55.524Z,1011.41
2023-05-02T04:07:55.455Z,1011.45
2023-05-02T04:08:55.484Z,1011.46
2023-05-02T04:09:55.411Z,1011.50
2023-05-02T04:10:55.404Z,1011.49
2023-05-02T04:11:55.435Z,1011.48
2023-05-02T04:12:55.381Z,1011.52
2023-05-02T04:13:55.403Z,1011.44
2023-05-02T04:14:55.367Z,1011.54
2023-05-02T04:15:55.385Z,1011.55
2023-05-02T04:16:55.442Z,1011.57
2023-05-02T04:17:55.380Z,1011.56
2023-05-02T04:18:55.319Z,1011.54
2023-05-02T04:19:55.327Z,1011.62
2023-05-02T04:20:55.301Z,1011.61
2023-05-02T04:21:55.292Z,1011.61
2023-05-02T04:22:55.276Z,1011.62
2023-05-02T04:23:55.286Z,1011.64
2023-05-02T04:24:55.255Z,1011.68
2023-05-02T04:25:55.238Z,1011.67
2023-05-02T04:26:55.252Z,1011.63
2023-05-02T04:27:55.264Z,1011.65
2023-05-02T04:28:55.244Z,1011.63
2023-05-02T04:29:55.225Z,1011.69
2023-05-02T04:30:55.246Z,1011.73
2023-05-02T04:31:55.199Z,1011.71
2023-05-02T04:32:55.232Z,1011.79
2023-05-02T04:33:55.172Z,1011.81
2023-05-02T04:34:55.168Z,1011.73
2023-05-02T04:35:55.142Z,1011.81
2023-05-02T04:36:55.124Z,1011.85
2023-05-02T04:37:55.112Z,1011.83
2023-05-02T04:38:55.110Z,1011.84
2023-05-02T04:39:55.124Z,1011.83
2023-05-02T04:40:55.083Z,1011.84
2023-05-02T04:41:55.061Z,1011.89
2023-05-02T04:42:55.072Z,1011.84
2023-05-02T04:43:55.092Z,1011.86
2023-05-02T04:44:55.083Z,1011.84
2023-05-02T04:45:55.085Z,1011.95
2023-05-02T04:46:55.118Z,1011.91
2023-05-02T04:47:55.028Z,1011.90
2023-05-02T04:48:54.996Z,1011.96
2023-05-02T04:49:54.981Z,1011.95
2023-05-02T04:50:54.987Z,1012.02
2023-05-02T04:51:54.958Z,1011.98
2023-05-02T04:52:54.965Z,1012.01
2023-05-02T04:53:54.931Z,1012.01
2023-05-02T04:54:54.930Z,1011.97
2023-05-02T04:55:54.938Z,1012.06
2023-05-02T04:56:54.917Z,1012.08
2023-05-02T04:57:54.895Z,1012.10
2023-05-02T04:58:54.907Z,1012.03
2023-05-02T04:59:54.887Z,1012.10
2023-05-02T05:00:54.888Z,1012.11
2023-05-02T05:01:54.868Z,1012.14
2023-05-02T05:02:54.956Z,1012.13
2023-05-02T05:03:54.955Z,1012.17
2023-05-02T05:04:54.867Z,1012.14
2023-05-02T05:05:54.824Z,1012.11
2023-05-02T05:06:54.828Z,1012.20
2023-05-02T05:07:54.789Z,1012.16
2023-05-02T05:08:54.776Z,1012.21
2023-05-02T05:09:54.821Z,1012.21
2023-05-02T05:10:54.785Z,1012.16
2023-05-02T05:11:54.745Z,1012.25
2023-05-02T05:12:54.738Z,1012.24
2023-05-02T05:13:54.716Z,1012.28
2023-05-02T05:14:54.710Z,1012.27
2023-05-02T05:15:54.762Z,1012.26
2023-05-02T05:16:54.701Z,1012.34
2023-05-02T05:17:54.694Z,1012.34
2023-05-02T05:18:54.669Z,1012.35
2023-05-02T05:19:54.672Z,1012.36
2023-05-02T05:20:54.657Z,1012.39
2023-05-02T05:21:54.644Z,1012.44
2023-05-02T05:22:54.626Z,1012.41
2023-05-02T05:23:54.645Z,1012.42
2023-05-02T05:24:54.639Z,1012.48
2023-05-02T05:25:54.595Z,1012.45
2023-05-02T05:26:54.593Z,1012.48
2023-05-02T05:27:54.576Z,1012.42
2023-05-02T05:28:54.555Z,1012.49
2023-05-02T05:29:54.574Z,1012.52
2023-05-02T05:30:54.532Z,1012.51
2023-05-02T05:31:54.586Z,1012.47
2023-05-02T05:32:54.595Z,1012.53
2023-05-02T05:33:54.529Z,1012.47
2023-05-02T05:34:54.528Z,1012.52
2023-05-02T05:35:54.486Z,1012.50
2023-05-02T05:36:54.474Z,1012.54
2023-05-02T05:37:54.475Z,1012.54
2023-05-02T05:38:54.479Z,1012.65
2023-05-02T05:39:54.443Z,1012.63
2023-05-02T05:40:54.454Z,1012.67
2023-05-02T05:41:54.407Z,1012.67
2023-05-02T05:42:54.406Z,1012.65
2023-05-02T05:43:54.417Z,1012.72
2023-05-02T05:44:54.396Z,1012.70
2023-05-02T05:45:54.368Z,1012.67
2023-05-02T05:46:54.511Z,1012.76
2023-05-02T05:47:54.464Z,1012.75
2023-05-02T05:48:54.340Z,1012.80
2023-05-02T05:49:54.398Z,1012.73
2023-05-02T05:50:54.334Z,1012.82
2023-05-02T05:51:54.314Z,1012.83
2023-05-02T05:52:54.308Z,1012.89
2023-05-02T05:53:54.317Z,1012.85
2023-05-02T05:54:54.296Z,1012.91
2023-05-02T05:55:54.280Z,1012.85
2023-05-02T05:56:54.256Z,1012.91
2023-05-02T05:57:54.267Z,1012.92
2023-05-02T05:58:54.236Z,1012.98
2023-05-02T05:59:54.249Z,1012.93
2023-05-02T06:00:54.211Z,1012.98
2023-05-02T06:01:54.224Z,1013.04
2023-05-02T06:02:54.311Z,1013.06
2023-05-02T06:03:54.294Z,1013.03
2023-05-02T06:04:54.245Z,1013.15
2023-05-02T06:05:54.152Z,1013.10
2023-05-02T06:06:54.207Z,1013.16
2023-05-02T06:07:54.126Z,1013.11
2023-05-02T06:08:54.129Z,1013.15
2023-05-02T06:09:54.151Z,1013.21
2023-05-02T06:10:54.107Z,1013.20
2023-05-02T06:11:54.093Z,1013.27
2023-05-02T06:12:54.087Z,1013.33
2023-05-02T06:13:54.075Z,1013.29
2023-05-02T06:14:54.082Z,1013.31
2023-05-02T06:15:54.099Z,1013.29
2023-05-02T06:16:54.031Z,1013.35
2023-05-02T06:17:54.145Z,1013.41
2023-05-02T06:18:54.020Z,1013.37
2023-05-02T06:19:54.050Z,1013.44
2023-05-02T06:20:53.997Z,1013.44
2023-05-02T06:21:54.005Z,1013.44
2023-05-02T06:22:53.996Z,1013.47
2023-05-02T06:23:53.962Z,1013.49
2023-05-02T06:24:53.958Z,1013.48
2023-05-02T06:25:53.936Z,1013.56
2023-05-02T06:26:53.951Z,1013.54
2023-05-02T06:27:53.950Z,1013.59
2023-05-02T06:28:53.916Z,1013.62
2023-05-02T06:29:53.926Z,1013.58
2023-05-02T06:30:53.918Z,1013.64
2023-05-02T06:31:53.978Z,1013.62
2023-05-02T06:32:54.012Z,1013.70
2023-05-02T06:33:53.853Z,1013.65
2023-05-02T06:34:53.846Z,1013.67
2023-05-02T06:35:53.877Z,1013.70
2023-05-02T06:36:53.844Z,1013.66
2023-05-02T06:37:53.819Z,1013.75
2023-05-02T06:38:53.809Z,1013.76
2023-05-02T06:39:53.800Z,1013.70
2023-05-02T06:40:53.786Z,1013.77
2023-05-02T06:41:53.790Z,1013.78
2023-05-02T06:42:53.756Z,1013.85
2023-05-02T06:43:53.749Z,1013.92
2023-05-02T06:44:53.734Z,1013.90
2023-05-02T06:45:53.717Z,1013.87
2023-05-02T06:46:53.775Z,1013.94
2023-05-02T06:47:53.859Z,1013.97
2023-05-02T06:48:53.710Z,1013.95
2023-05-02T06:49:53.688Z,1014.04
2023-05-02T06:50:53.669Z,1014.04
2023-05-02T06:51:53.691Z,1013.95
2023-05-02T06:52:53.659Z,1014.07
2023-05-02T06:53:53.649Z,1014.06
2023-05-02T06:54:53.621Z,1014.10
2023-05-02T06:55:53.631Z,1014.04
2023-05-02T06:56:53.595Z,1014.01
2023-05-02T06:57:53.624Z,1014.00
2023-05-02T06:58:53.601Z,1014.04
2023-05-02T06:59:53.586Z,1014.08
2023-05-02T07:00:53.616Z,1014.15
2023-05-02T07:01:53.568Z,1014.12
2023-05-02T07:02:53.565Z,1014.12
2023-05-02T07:03:53.555Z,1014.04
2023-05-02T07:04:53.527Z,1014.10
2023-05-02T07:05:53.498Z,1014.16
2023-05-02T07:06:53.532Z,1014.16
2023-05-02T07:07:53.511Z,1014.13
2023-05-02T07:08:53.501Z,1014.18
2023-05-02T07:09:53.471Z,1014.19
2023-05-02T07:10:53.451Z,1014.21
2023-05-02T07:11:53.449Z,1014.25
2023-05-02T07:12:53.436Z,1014.28
2023-05-02T07:13:53.431Z,1014.23
2023-05-02T07:14:53.458Z,1014.31
2023-05-02T07:15:53.406Z,1014.29
2023-05-02T07:16:53.446Z,1014.31
2023-05-02T07:17:53.403Z,1014.29
2023-05-02T07:18:53.358Z,1014.28
2023-05-02T07:19:53.378Z,1014.32
2023-05-02T07:20:53.337Z,1014.33
2023-05-02T07:21:53.338Z,1014.37
2023-05-02T07:22:53.315Z,1014.45
2023-05-02T07:23:53.350Z,1014.41
2023-05-02T07:24:53.294Z,1014.41
2023-05-02T07:25:53.316Z,1014.41
2023-05-02T07:26:53.281Z,1014.35
2023-05-02T07:27:53.275Z,1014.37
2023-05-02T07:28:53.256Z,1014.42
2023-05-02T07:29:53.244Z,1014.45
2023-05-02T07:30:53.261Z,1014.45
2023-05-02T07:31:53.274Z,1014.52
2023-05-02T07:32:53.229Z,1014.52
2023-05-02T07:33:53.197Z,1014.47
2023-05-02T07:34:53.193Z,1014.56
2023-05-02T07:35:53.197Z,1014.45
2023-05-02T07:36:53.157Z,1014.48
2023-05-02T07:37:53.169Z,1014.46
2023-05-02T07:38:53.160Z,1014.48
2023-05-02T07:39:53.166Z,1014.52
2023-05-02T07:40:53.156Z,1014.47
2023-05-02T07:41:53.122Z,1014.53
2023-05-02T07:42:53.102Z,1014.47
2023-05-02T07:43:53.094Z,1014.44
2023-05-02T07:44:53.081Z,1014.51
2023-05-02T07:45:53.173Z,1014.56
2023-05-02T07:46:53.058Z,1014.55
2023-05-02T07:47:53.087Z,1014.60
2023-05-02T07:48:53.059Z,1014.61
2023-05-02T07:49:53.031Z,1014.61
2023-05-02T07:50:53.043Z,1014.59
2023-05-02T07:51:53.008Z,1014.63
2023-05-02T07:52:52.993Z,1014.67
2023-05-02T07:53:53.058Z,1014.68
2023-05-02T07:54:53.014Z,1014.69
2023-05-02T07:55:53.061Z,1014.65
2023-05-02T07:56:52.948Z,1014.66
2023-05-02T07:57:52.971Z,1014.69
2023-05-02T07:58:52.927Z,1014.73
2023-05-02T07:59:52.916Z,1014.73
2023-05-02T08:00:52.905Z,1014.76
2023-05-02T08:01:52.896Z,1014.78
2023-05-02T08:02:53.021Z,1014.79
2023-05-02T08:03:53.138Z,1014.83
2023-05-02T08:04:52.902Z,1014.79
2023-05-02T08:05:52.861Z,1014.74
2023-05-02T08:06:53.024Z,1014.81
2023-05-02T08:07:52.869Z,1014.81
2023-05-02T08:08:52.827Z,1014.86
2023-05-02T08:09:52.828Z,1014.91
2023-05-02T08:10:52.828Z,1014.85
2023-05-02T08:11:52.836Z,1014.87
2023-05-02T08:12:52.776Z,1014.90
2023-05-02T08:13:52.769Z,1014.80
2023-05-02T08:14:52.756Z,1014.84
2023-05-02T08:15:52.816Z,1014.87
2023-05-02T08:16:52.777Z,1014.86
2023-05-02T08:17:52.821Z,1014.87
2023-05-02T08:18:52.731Z,1014.89
2023-05-02T08:19:52.726Z,1014.88
2023-05-02T08:20:52.689Z,1014.96
2023-05-02T08:21:52.681Z,1014.92
2023-05-02T08:22:52.705Z,1015.02
2023-05-02T08:23:52.685Z,1015.00
2023-05-02T08:24:52.649Z,1015.06
2023-05-02T08:25:52.670Z,1015.03
2023-05-02T08:26:52.622Z,1015.01
2023-05-02T08:27:52.661Z,1015.11
2023-05-02T08:28:52.609Z,1015.18
2023-05-02T08:29:52.608Z,1015.15
2023-05-02T08:30:52.579Z,1015.20
2023-05-02T08:31:52.690Z,1015.18
2023-05-02T08:32:52.748Z,1015.21
2023-05-02T08:33:52.551Z,1015.25
2023-05-02T08:34:52.545Z,1015.29
2023-05-02T08:35:52.544Z,1015.22
2023-05-02T08:36:52.525Z,1015.22
2023-05-02T08:37:52.515Z,1015.32
2023-05-02T08:38:52.529Z,1015.36
2023-05-02T08:39:52.482Z,1015.32
2023-05-02T08:40:52.489Z,1015.30
2023-05-02T08:41:52.467Z,1015.35
2023-05-02T08:42:52.457Z,1015.39
2023-05-02T08:43:52.481Z,1015.41
2023-05-02T08:44:52.432Z,1015.41
2023-05-02T08:45:52.418Z,1015.39
2023-05-02T08:46:52.437Z,1015.37
2023-05-02T08:47:52.500Z,1015.41
2023-05-02T08:48:52.415Z,1015.41
2023-05-02T08:49:52.401Z,1015.41
2023-05-02T08:50:52.363Z,1015.40
2023-05-02T08:51:52.348Z,1015.40
2023-05-02T08:52:52.349Z,1015.47
2023-05-02T08:53:52.363Z,1015.46
2023-05-02T08:54:52.364Z,1015.46
2023-05-02T08:55:52.311Z,1015.49
2023-05-02T08:56:52.290Z,1015.54
2023-05-02T08:57:52.290Z,1015.53
2023-05-02T08:58:52.309Z,1015.55
2023-05-02T08:59:52.381Z,1015.61
2023-05-02T09:00:52.345Z,1015.58
2023-05-02T09:01:52.250Z,1015.64
2023-05-02T09:02:52.285Z,1015.61
2023-05-02T09:03:52.365Z,1015.65
2023-05-02T09:04:52.218Z,1015.68
2023-05-02T09:05:52.202Z,1015.67
2023-05-02T09:06:52.311Z,1015.72
2023-05-02T09:07:52.208Z,1015.72
2023-05-02T09:08:52.212Z,1015.73
2023-05-02T09:09:52.174Z,1015.79
2023-05-02T09:10:52.144Z,1015.81
2023-05-02T09:11:52.147Z,1015.76
2023-05-02T09:12:52.125Z,1015.86
2023-05-02T09:13:52.140Z,1015.88
2023-05-02T09:14:52.130Z,1015.86
2023-05-02T09:15:52.139Z,1015.86
2023-05-02T09:16:52.155Z,1015.86
2023-05-02T09:17:52.152Z,1015.86
2023-05-02T09:18:52.052Z,1015.89
2023-05-02T09:19:52.078Z,1015.88
2023-05-02T09:20:52.044Z,1015.93
2023-05-02T09:21:52.045Z,1016.03
2023-05-02T09:22:52.038Z,1016.01
2023-05-02T09:23:52.008Z,1016.03
2023-05-02T09:24:52.010Z,1016.04
2023-05-02T09:25:51.990Z,1016.07
2023-05-02T09:26:51.996Z,1016.02
2023-05-02T09:27:52.019Z,1016.04
2023-05-02T09:28:51.971Z,1016.02
2023-05-02T09:29:51.943Z,1016.07
2023-05-02T09:30:51.943Z,1016.12
2023-05-02T09:31:56.383Z,1016.11
2023-05-02T09:32:51.932Z,1016.18
2023-05-02T09:33:51.923Z,1016.13
2023-05-02T09:34:51.889Z,1016.15
2023-05-02T09:35:51.885Z,1016.19
2023-05-02T09:36:51.950Z,1016.24
2023-05-02T09:37:51.861Z,1016.24
2023-05-02T09:38:51.847Z,1016.18
2023-05-02T09:39:51.858Z,1016.25
2023-05-02T09:40:51.833Z,1016.17
2023-05-02T09:41:51.903Z,1016.21
2023-05-02T09:42:51.808Z,1016.19
2023-05-02T09:43:51.818Z,1016.13
2023-05-02T09:44:51.797Z,1016.09
2023-05-02T09:45:51.821Z,1016.14
2023-05-02T09:46:51.763Z,1016.19
2023-05-02T09:47:51.885Z,1016.19
2023-05-02T09:48:51.733Z,1016.22
2023-05-02T09:49:51.755Z,1016.24
2023-05-02T09:50:51.709Z,1016.25
2023-05-02T09:51:51.854Z,1016.19
2023-05-02T09:52:51.691Z,1016.16
2023-05-02T09:53:51.684Z,1016.25
2023-05-02T09:54:51.700Z,1016.26
2023-05-02T09:55:51.676Z,1016.24
2023-05-02T09:56:51.651Z,1016.26
2023-05-02T09:57:51.636Z,1016.23
2023-05-02T09:58:51.632Z,1016.30
2023-05-02T09:59:51.652Z,1016.31
2023-05-02T10:00:51.659Z,1016.29
2023-05-02T10:01:51.680Z,1016.42
2023-05-02T10:02:51.632Z,1016.31
2023-05-02T10:03:51.845Z,1016.31
2023-05-02T10:04:51.567Z,1016.27
2023-05-02T10:05:51.585Z,1016.36
2023-05-02T10:06:51.685Z,1016.33
2023-05-02T10:07:51.536Z,1016.38
2023-05-02T10:08:51.563Z,1016.36
2023-05-02T10:09:51.512Z,1016.36
2023-05-02T10:10:51.493Z,1016.42
2023-05-02T10:11:51.547Z,1016.42
2023-05-02T10:12:51.472Z,1016.43
2023-05-02T10:13:51.470Z,1016.54
2023-05-02T10:14:51.460Z,1016.47
2023-05-02T10:15:51.509Z,1016.45
2023-05-02T10:16:51.459Z,1016.52
2023-05-02T10:17:51.448Z,1016.62
2023-05-02T10:18:51.412Z,1016.58
2023-05-02T10:19:51.431Z,1016.58
2023-05-02T10:20:51.425Z,1016.63
2023-05-02T10:21:51.386Z,1016.62
2023-05-02T10:22:51.366Z,1016.59
2023-05-02T10:23:51.363Z,1016.65
2023-05-02T10:24:51.348Z,1016.70
2023-05-02T10:25:51.384Z,1016.69
2023-05-02T10:26:51.322Z,1016.69
2023-05-02T10:27:51.313Z,1016.73
2023-05-02T10:28:51.303Z,1016.75
2023-05-02T10:29:51.346Z,1016.70
2023-05-02T10:30:51.280Z,1016.71
2023-05-02T10:31:51.377Z,1016.80
2023-05-02T10:32:51.322Z,1016.83
2023-05-02T10:33:51.252Z,1016.90
2023-05-02T10:34:51.238Z,1016.89
2023-05-02T10:35:51.271Z,1016.92
2023-05-02T10:36:51.233Z,1016.93
2023-05-02T10:37:51.212Z,1016.95
2023-05-02T10:38:51.237Z,1016.96
2023-05-02T10:39:51.200Z,1017.03
2023-05-02T10:40:51.181Z,1016.97
2023-05-02T10:41:51.164Z,1017.03
2023-05-02T10:42:51.167Z,1017.06
2023-05-02T10:43:51.162Z,1017.15
2023-05-02T10:44:51.177Z,1017.13
2023-05-02T10:45:51.126Z,1017.14
2023-05-02T10:46:51.168Z,1017.25
2023-05-02T10:47:51.115Z,1017.20
2023-05-02T10:48:51.101Z,1017.27
2023-05-02T10:49:51.078Z,1017.26
2023-05-02T10:50:51.063Z,1017.27
2023-05-02T10:51:51.098Z,1017.31
2023-05-02T10:52:51.041Z,1017.34
2023-05-02T10:53:51.043Z,1017.38
2023-05-02T10:54:51.012Z,1017.39
2023-05-02T10:55:51.035Z,1017.38
2023-05-02T10:56:51.003Z,1017.48
2023-05-02T10:57:50.984Z,1017.43
2023-05-02T10:58:51.009Z,1017.47
2023-05-02T10:59:50.957Z,1017.48
2023-05-02T11:00:51.005Z,1017.48
2023-05-02T11:01:51.044Z,1017.53
2023-05-02T11:02:50.991Z,1017.53
2023-05-02T11:03:50.912Z,1017.57
2023-05-02T11:04:50.911Z,1017.55
2023-05-02T11:05:50.925Z,1017.67
2023-05-02T11:06:50.951Z,1017.62
2023-05-02T11:07:50.909Z,1017.63
2023-05-02T11:08:50.878Z,1017.64
2023-05-02T11:09:50.848Z,1017.63
2023-05-02T11:10:50.865Z,1017.62
2023-05-02T11:11:50.829Z,1017.64
2023-05-02T11:12:50.841Z,1017.67
2023-05-02T11:13:50.819Z,1017.67
2023-05-02T11:14:50.826Z,1017.70
2023-05-02T11:15:50.801Z,1017.75
2023-05-02T11:16:50.841Z,1017.66
2023-05-02T11:17:50.834Z,1017.68
2023-05-02T11:18:50.755Z,1017.74
2023-05-02T11:19:50.752Z,1017.74
2023-05-02T11:20:50.733Z,1017.72
2023-05-02T11:21:50.735Z,1017.74
2023-05-02T11:22:50.733Z,1017.77
2023-05-02T11:23:50.728Z,1017.73
2023-05-02T11:24:50.697Z,1017.76
2023-05-02T11:25:50.702Z,1017.84
2023-05-02T11:26:50.674Z,1017.81
2023-05-02T11:27:50.678Z,1017.76
2023-05-02T11:28:50.670Z,1017.85
2023-05-02T11:29:50.639Z,1017.85
2023-05-02T11:30:50.626Z,1017.87
2023-05-02T11:31:50.637Z,1017.81
2023-05-02T11:32:50.659Z,1017.84
2023-05-02T11:33:50.592Z,1017.85
2023-05-02T11:34:50.585Z,1017.95
2023-05-02T11:35:50.590Z,1017.87
2023-05-02T11:36:50.562Z,1017.97
2023-05-02T11:37:50.549Z,1017.91
2023-05-02T11:38:50.539Z,1017.99
2023-05-02T11:39:50.546Z,1017.99
2023-05-02T11:40:50.543Z,1018.06
2023-05-02T11:41:50.513Z,1017.92
2023-05-02T11:42:50.513Z,1018.03
2023-05-02T11:43:50.500Z,1018.04
2023-05-02T11:44:50.475Z,1018.02
2023-05-02T11:45:50.505Z,1018.03
2023-05-02T11:46:50.538Z,1017.98
2023-05-02T11:47:50.526Z,1018.03
2023-05-02T11:48:50.453Z,1017.98
2023-05-02T11:49:50.417Z,1017.96
2023-05-02T11:50:50.912Z,1018.00
2023-05-02T11:51:50.404Z,1017.98
2023-05-02T11:52:50.386Z,1017.93
2023-05-02T11:53:50.400Z,1018.02
2023-05-02T11:54:50.377Z,1017.90
2023-05-02T11:55:50.384Z,1017.98
2023-05-02T11:56:50.358Z,1018.02
2023-05-02T11:57:50.332Z,1017.97
2023-05-02T11:58:50.348Z,1018.03
2023-05-02T11:59:50.311Z,1018.12
2023-05-02T12:00:50.313Z,1018.05
2023-05-02T12:01:50.286Z,1018.07
2023-05-02T12:02:50.316Z,1018.06
2023-05-02T12:03:50.380Z,1018.20
2023-05-02T12:04:50.260Z,1018.14
2023-05-02T12:05:50.278Z,1017.98